sensor_id;sensor_type;location;lat;lon;timestamp;P1;durP1;ratioP1;P2;durP2;ratioP2
14748;SDS011;7466;53.574;9.976;2023-07-30T00:01:09;9.93;;;8.93;;
14748;SDS011;7466;53.574;9.976;2023-07-30T00:03:35;9.27;;;8.57;;
14748;SDS011;7466;53.574;9.976;2023-07-30T00:06:02;10.20;;;9.40;;
14748;SDS011;7466;53.574;9.976;2023-07-30T00:08:29;10.33;;;9.23;;
14748;SDS011;7466;53.574;9.976;2023-07-30T00:10:56;9.87;;;9.00;;
14748;SDS011;7466;53.574;9.976;2023-07-30T00:13:23;10.83;;;10.03;;
14748;SDS011;7466;53.574;9.976;2023-07-30T00:15:51;10.10;;;9.13;;
14748;SDS011;7466;53.574;9.976;2023-07-30T00:18:17;9.37;;;7.90;;
14748;SDS011;7466;53.574;9.976;2023-07-30T00:20:44;8.30;;;7.50;;
14748;SDS011;7466;53.574;9.976;2023-07-30T00:23:11;8.37;;;7.57;;
14748;SDS011;7466;53.574;9.976;2023-07-30T00:25:37;7.80;;;7.17;;
14748;SDS011;7466;53.574;9.976;2023-07-30T00:28:03;7.77;;;7.03;;
14748;SDS011;7466;53.574;9.976;2023-07-30T00:30:33;7.30;;;6.70;;
14748;SDS011;7466;53.574;9.976;2023-07-30T00:33:01;7.67;;;6.90;;
14748;SDS011;7466;53.574;9.976;2023-07-30T00:35:28;7.30;;;6.80;;
14748;SDS011;7466;53.574;9.976;2023-07-30T00:37:55;7.00;;;6.50;;
14748;SDS011;7466;53.574;9.976;2023-07-30T00:40:21;7.30;;;6.70;;
14748;SDS011;7466;53.574;9.976;2023-07-30T00:42:48;7.17;;;6.60;;
14748;SDS011;7466;53.574;9.976;2023-07-30T00:45:15;8.20;;;7.10;;
14748;SDS011;7466;53.574;9.976;2023-07-30T00:47:41;8.00;;;7.20;;
14748;SDS011;7466;53.574;9.976;2023-07-30T00:50:10;8.40;;;7.60;;
14748;SDS011;7466;53.574;9.976;2023-07-30T00:52:40;7.63;;;7.00;;
14748;SDS011;7466;53.574;9.976;2023-07-30T00:55:08;8.27;;;7.33;;
14748;SDS011;7466;53.574;9.976;2023-07-30T00:57:35;7.50;;;6.80;;
14748;SDS011;7466;53.574;9.976;2023-07-30T01:00:03;7.70;;;7.00;;
14748;SDS011;7466;53.574;9.976;2023-07-30T01:02:32;8.27;;;7.17;;
14748;SDS011;7466;53.574;9.976;2023-07-30T01:04:59;8.07;;;7.27;;
14748;SDS011;7466;53.574;9.976;2023-07-30T01:07:29;6.70;;;6.20;;
14748;SDS011;7466;53.574;9.976;2023-07-30T01:09:56;9.23;;;8.40;;
14748;SDS011;7466;53.574;9.976;2023-07-30T01:12:23;8.63;;;7.33;;
14748;SDS011;7466;53.574;9.976;2023-07-30T01:14:50;7.50;;;6.80;;
14748;SDS011;7466;53.574;9.976;2023-07-30T01:17:18;7.93;;;7.30;;
14748;SDS011;7466;53.574;9.976;2023-07-30T01:19:45;8.90;;;7.40;;
14748;SDS011;7466;53.574;9.976;2023-07-30T01:22:13;8.50;;;7.70;;
14748;SDS011;7466;53.574;9.976;2023-07-30T01:24:40;7.93;;;7.30;;
14748;SDS011;7466;53.574;9.976;2023-07-30T01:27:07;8.07;;;7.47;;
14748;SDS011;7466;53.574;9.976;2023-07-30T01:29:38;8.47;;;7.77;;
14748;SDS011;7466;53.574;9.976;2023-07-30T01:32:11;9.07;;;8.17;;
14748;SDS011;7466;53.574;9.976;2023-07-30T01:34:40;9.03;;;8.30;;
14748;SDS011;7466;53.574;9.976;2023-07-30T01:37:09;9.50;;;8.60;;
14748;SDS011;7466;53.574;9.976;2023-07-30T01:39:40;8.60;;;7.80;;
14748;SDS011;7466;53.574;9.976;2023-07-30T01:42:08;9.70;;;8.90;;
14748;SDS011;7466;53.574;9.976;2023-07-30T01:44:37;9.97;;;9.00;;
14748;SDS011;7466;53.574;9.976;2023-07-30T01:47:04;10.67;;;9.67;;
14748;SDS011;7466;53.574;9.976;2023-07-30T01:49:31;10.60;;;9.60;;
14748;SDS011;7466;53.574;9.976;2023-07-30T01:51:58;10.50;;;9.50;;
14748;SDS011;7466;53.574;9.976;2023-07-30T01:54:25;12.07;;;10.00;;
14748;SDS011;7466;53.574;9.976;2023-07-30T01:56:53;11.03;;;9.83;;
14748;SDS011;7466;53.574;9.976;2023-07-30T01:59:20;8.83;;;8.13;;
14748;SDS011;7466;53.574;9.976;2023-07-30T02:01:46;10.10;;;9.20;;
14748;SDS011;7466;53.574;9.976;2023-07-30T02:04:13;10.93;;;9.80;;
14748;SDS011;7466;53.574;9.976;2023-07-30T02:06:41;10.60;;;9.60;;
14748;SDS011;7466;53.574;9.976;2023-07-30T02:09:08;10.97;;;9.97;;
14748;SDS011;7466;53.574;9.976;2023-07-30T02:11:34;10.80;;;9.90;;
14748;SDS011;7466;53.574;9.976;2023-07-30T02:14:02;11.20;;;10.40;;
14748;SDS011;7466;53.574;9.976;2023-07-30T02:16:29;12.50;;;11.30;;
14748;SDS011;7466;53.574;9.976;2023-07-30T02:18:56;10.97;;;10.23;;
14748;SDS011;7466;53.574;9.976;2023-07-30T02:21:22;12.20;;;11.10;;
14748;SDS011;7466;53.574;9.976;2023-07-30T02:23:49;12.57;;;11.43;;
14748;SDS011;7466;53.574;9.976;2023-07-30T02:26:16;11.80;;;10.97;;
14748;SDS011;7466;53.574;9.976;2023-07-30T02:28:42;15.53;;;11.87;;
14748;SDS011;7466;53.574;9.976;2023-07-30T02:31:10;13.27;;;12.07;;
14748;SDS011;7466;53.574;9.976;2023-07-30T02:33:37;13.63;;;12.33;;
14748;SDS011;7466;53.574;9.976;2023-07-30T02:36:04;13.50;;;12.40;;
14748;SDS011;7466;53.574;9.976;2023-07-30T02:38:30;13.37;;;11.97;;
14748;SDS011;7466;53.574;9.976;2023-07-30T02:40:57;13.30;;;12.23;;
14748;SDS011;7466;53.574;9.976;2023-07-30T02:43:24;14.87;;;13.57;;
14748;SDS011;7466;53.574;9.976;2023-07-30T02:45:50;16.17;;;13.90;;
14748;SDS011;7466;53.574;9.976;2023-07-30T02:48:18;15.27;;;13.97;;
14748;SDS011;7466;53.574;9.976;2023-07-30T02:50:45;16.07;;;14.67;;
14748;SDS011;7466;53.574;9.976;2023-07-30T02:53:12;16.07;;;14.37;;
14748;SDS011;7466;53.574;9.976;2023-07-30T02:55:38;16.07;;;14.57;;
14748;SDS011;7466;53.574;9.976;2023-07-30T02:58:05;16.37;;;14.87;;
14748;SDS011;7466;53.574;9.976;2023-07-30T03:00:32;16.40;;;14.70;;
14748;SDS011;7466;53.574;9.976;2023-07-30T03:02:58;18.50;;;16.43;;
14748;SDS011;7466;53.574;9.976;2023-07-30T03:05:27;17.33;;;15.53;;
14748;SDS011;7466;53.574;9.976;2023-07-30T03:07:53;17.63;;;15.83;;
14748;SDS011;7466;53.574;9.976;2023-07-30T03:10:20;17.90;;;16.10;;
14748;SDS011;7466;53.574;9.976;2023-07-30T03:12:47;17.47;;;15.87;;
14748;SDS011;7466;53.574;9.976;2023-07-30T03:15:14;20.47;;;16.13;;
14748;SDS011;7466;53.574;9.976;2023-07-30T03:17:40;18.30;;;16.17;;
14748;SDS011;7466;53.574;9.976;2023-07-30T03:20:07;18.40;;;16.67;;
14748;SDS011;7466;53.574;9.976;2023-07-30T03:22:36;18.33;;;16.57;;
14748;SDS011;7466;53.574;9.976;2023-07-30T03:25:03;18.70;;;16.77;;
14748;SDS011;7466;53.574;9.976;2023-07-30T03:27:30;22.30;;;17.67;;
14748;SDS011;7466;53.574;9.976;2023-07-30T03:29:57;20.93;;;17.67;;
14748;SDS011;7466;53.574;9.976;2023-07-30T03:32:23;19.47;;;17.47;;
14748;SDS011;7466;53.574;9.976;2023-07-30T03:34:50;18.97;;;17.07;;
14748;SDS011;7466;53.574;9.976;2023-07-30T03:37:16;22.80;;;17.63;;
14748;SDS011;7466;53.574;9.976;2023-07-30T03:39:44;21.90;;;18.27;;
14748;SDS011;7466;53.574;9.976;2023-07-30T03:42:11;21.53;;;18.13;;
14748;SDS011;7466;53.574;9.976;2023-07-30T03:44:38;21.47;;;17.47;;
14748;SDS011;7466;53.574;9.976;2023-07-30T03:47:05;22.33;;;18.17;;
14748;SDS011;7466;53.574;9.976;2023-07-30T03:49:31;19.17;;;17.13;;
14748;SDS011;7466;53.574;9.976;2023-07-30T03:51:59;19.67;;;17.80;;
14748;SDS011;7466;53.574;9.976;2023-07-30T03:54:25;21.90;;;17.90;;
14748;SDS011;7466;53.574;9.976;2023-07-30T03:56:53;22.87;;;17.97;;
14748;SDS011;7466;53.574;9.976;2023-07-30T03:59:20;21.70;;;17.57;;
14748;SDS011;7466;53.574;9.976;2023-07-30T04:01:47;19.93;;;17.43;;
14748;SDS011;7466;53.574;9.976;2023-07-30T04:04:14;19.37;;;17.10;;
14748;SDS011;7466;53.574;9.976;2023-07-30T04:06:40;19.60;;;17.13;;
14748;SDS011;7466;53.574;9.976;2023-07-30T04:09:07;18.97;;;16.97;;
14748;SDS011;7466;53.574;9.976;2023-07-30T04:11:34;18.57;;;16.67;;
14748;SDS011;7466;53.574;9.976;2023-07-30T04:14:02;21.40;;;16.37;;
14748;SDS011;7466;53.574;9.976;2023-07-30T04:16:30;20.30;;;17.00;;
14748;SDS011;7466;53.574;9.976;2023-07-30T04:18:56;19.70;;;15.93;;
14748;SDS011;7466;53.574;9.976;2023-07-30T04:21:23;21.13;;;16.20;;
14748;SDS011;7466;53.574;9.976;2023-07-30T04:23:50;20.50;;;16.77;;
14748;SDS011;7466;53.574;9.976;2023-07-30T04:26:17;24.70;;;16.53;;
14748;SDS011;7466;53.574;9.976;2023-07-30T04:28:44;19.57;;;15.07;;
14748;SDS011;7466;53.574;9.976;2023-07-30T04:31:11;19.50;;;15.63;;
14748;SDS011;7466;53.574;9.976;2023-07-30T04:33:38;18.37;;;15.97;;
14748;SDS011;7466;53.574;9.976;2023-07-30T04:36:05;18.13;;;15.17;;
14748;SDS011;7466;53.574;9.976;2023-07-30T04:38:32;18.53;;;15.07;;
14748;SDS011;7466;53.574;9.976;2023-07-30T04:40:59;19.97;;;14.73;;
14748;SDS011;7466;53.574;9.976;2023-07-30T04:43:26;20.27;;;15.17;;
14748;SDS011;7466;53.574;9.976;2023-07-30T04:45:53;20.73;;;15.03;;
14748;SDS011;7466;53.574;9.976;2023-07-30T04:48:21;17.07;;;14.73;;
14748;SDS011;7466;53.574;9.976;2023-07-30T04:50:47;19.27;;;13.97;;
14748;SDS011;7466;53.574;9.976;2023-07-30T04:53:14;22.93;;;13.97;;
14748;SDS011;7466;53.574;9.976;2023-07-30T04:55:42;19.17;;;14.27;;
14748;SDS011;7466;53.574;9.976;2023-07-30T04:58:08;16.93;;;13.63;;
14748;SDS011;7466;53.574;9.976;2023-07-30T05:00:35;14.10;;;12.57;;
14748;SDS011;7466;53.574;9.976;2023-07-30T05:03:02;15.37;;;12.63;;
14748;SDS011;7466;53.574;9.976;2023-07-30T05:05:30;17.93;;;12.07;;
14748;SDS011;7466;53.574;9.976;2023-07-30T05:07:57;20.50;;;12.33;;
14748;SDS011;7466;53.574;9.976;2023-07-30T05:10:23;18.00;;;11.80;;
14748;SDS011;7466;53.574;9.976;2023-07-30T05:12:50;15.13;;;11.67;;
14748;SDS011;7466;53.574;9.976;2023-07-30T05:15:17;15.43;;;12.10;;
14748;SDS011;7466;53.574;9.976;2023-07-30T05:17:43;15.07;;;11.10;;
14748;SDS011;7466;53.574;9.976;2023-07-30T05:20:10;15.37;;;10.97;;
14748;SDS011;7466;53.574;9.976;2023-07-30T05:22:39;15.33;;;11.10;;
14748;SDS011;7466;53.574;9.976;2023-07-30T05:25:05;14.47;;;10.57;;
14748;SDS011;7466;53.574;9.976;2023-07-30T05:27:33;15.87;;;10.37;;
14748;SDS011;7466;53.574;9.976;2023-07-30T05:30:01;16.80;;;10.83;;
14748;SDS011;7466;53.574;9.976;2023-07-30T05:32:28;15.53;;;10.67;;
14748;SDS011;7466;53.574;9.976;2023-07-30T05:34:54;14.67;;;10.50;;
14748;SDS011;7466;53.574;9.976;2023-07-30T05:37:21;20.13;;;10.40;;
14748;SDS011;7466;53.574;9.976;2023-07-30T05:39:50;10.77;;;9.70;;
14748;SDS011;7466;53.574;9.976;2023-07-30T05:42:17;16.27;;;10.30;;
14748;SDS011;7466;53.574;9.976;2023-07-30T05:44:43;16.90;;;10.17;;
14748;SDS011;7466;53.574;9.976;2023-07-30T05:47:10;12.47;;;9.97;;
14748;SDS011;7466;53.574;9.976;2023-07-30T05:49:37;13.07;;;10.93;;
14748;SDS011;7466;53.574;9.976;2023-07-30T05:52:04;14.07;;;10.47;;
14748;SDS011;7466;53.574;9.976;2023-07-30T05:54:31;17.40;;;10.40;;
14748;SDS011;7466;53.574;9.976;2023-07-30T05:56:59;12.00;;;9.70;;
14748;SDS011;7466;53.574;9.976;2023-07-30T05:59:26;18.33;;;10.37;;
14748;SDS011;7466;53.574;9.976;2023-07-30T06:01:52;18.37;;;10.00;;
14748;SDS011;7466;53.574;9.976;2023-07-30T06:04:21;16.10;;;10.37;;
14748;SDS011;7466;53.574;9.976;2023-07-30T06:06:48;15.27;;;9.60;;
14748;SDS011;7466;53.574;9.976;2023-07-30T06:09:15;17.37;;;10.93;;
14748;SDS011;7466;53.574;9.976;2023-07-30T06:11:41;18.30;;;10.20;;
14748;SDS011;7466;53.574;9.976;2023-07-30T06:14:10;16.37;;;9.57;;
14748;SDS011;7466;53.574;9.976;2023-07-30T06:16:37;13.87;;;10.00;;
14748;SDS011;7466;53.574;9.976;2023-07-30T06:19:03;15.53;;;10.17;;
14748;SDS011;7466;53.574;9.976;2023-07-30T06:21:30;18.30;;;9.60;;
14748;SDS011;7466;53.574;9.976;2023-07-30T06:23:57;14.23;;;9.03;;
14748;SDS011;7466;53.574;9.976;2023-07-30T06:26:23;21.70;;;10.00;;
14748;SDS011;7466;53.574;9.976;2023-07-30T06:28:50;16.30;;;9.83;;
14748;SDS011;7466;53.574;9.976;2023-07-30T06:31:18;17.03;;;9.50;;
14748;SDS011;7466;53.574;9.976;2023-07-30T06:33:45;18.53;;;10.70;;
14748;SDS011;7466;53.574;9.976;2023-07-30T06:36:11;17.13;;;10.60;;
14748;SDS011;7466;53.574;9.976;2023-07-30T06:38:38;17.37;;;12.03;;
14748;SDS011;7466;53.574;9.976;2023-07-30T06:41:05;28.23;;;14.13;;
14748;SDS011;7466;53.574;9.976;2023-07-30T06:43:31;28.33;;;14.53;;
14748;SDS011;7466;53.574;9.976;2023-07-30T06:45:58;25.60;;;14.33;;
14748;SDS011;7466;53.574;9.976;2023-07-30T06:48:27;24.60;;;13.77;;
14748;SDS011;7466;53.574;9.976;2023-07-30T06:50:53;21.83;;;14.00;;
14748;SDS011;7466;53.574;9.976;2023-07-30T06:53:20;26.63;;;13.30;;
14748;SDS011;7466;53.574;9.976;2023-07-30T06:55:47;24.40;;;13.67;;
14748;SDS011;7466;53.574;9.976;2023-07-30T06:58:13;26.73;;;13.83;;
14748;SDS011;7466;53.574;9.976;2023-07-30T07:00:40;22.17;;;13.53;;
14748;SDS011;7466;53.574;9.976;2023-07-30T07:03:07;19.70;;;11.87;;
14748;SDS011;7466;53.574;9.976;2023-07-30T07:05:35;21.83;;;13.00;;
14748;SDS011;7466;53.574;9.976;2023-07-30T07:08:01;26.57;;;13.03;;
14748;SDS011;7466;53.574;9.976;2023-07-30T07:10:27;28.43;;;13.30;;
14748;SDS011;7466;53.574;9.976;2023-07-30T07:12:54;25.30;;;12.80;;
14748;SDS011;7466;53.574;9.976;2023-07-30T07:15:21;20.93;;;11.93;;
14748;SDS011;7466;53.574;9.976;2023-07-30T07:17:47;24.93;;;13.17;;
14748;SDS011;7466;53.574;9.976;2023-07-30T07:20:14;23.90;;;12.60;;
14748;SDS011;7466;53.574;9.976;2023-07-30T07:22:42;26.60;;;13.00;;
14748;SDS011;7466;53.574;9.976;2023-07-30T07:25:09;25.97;;;12.03;;
14748;SDS011;7466;53.574;9.976;2023-07-30T07:27:36;30.90;;;11.67;;
14748;SDS011;7466;53.574;9.976;2023-07-30T07:30:02;24.70;;;11.23;;
14748;SDS011;7466;53.574;9.976;2023-07-30T07:32:29;24.83;;;11.07;;
14748;SDS011;7466;53.574;9.976;2023-07-30T07:35:02;21.90;;;10.80;;
14748;SDS011;7466;53.574;9.976;2023-07-30T07:37:30;17.90;;;10.63;;
14748;SDS011;7466;53.574;9.976;2023-07-30T07:39:59;20.03;;;10.17;;
14748;SDS011;7466;53.574;9.976;2023-07-30T07:42:26;23.13;;;9.93;;
14748;SDS011;7466;53.574;9.976;2023-07-30T07:44:52;19.37;;;9.57;;
14748;SDS011;7466;53.574;9.976;2023-07-30T07:47:19;20.67;;;9.30;;
14748;SDS011;7466;53.574;9.976;2023-07-30T07:49:46;18.67;;;8.20;;
14748;SDS011;7466;53.574;9.976;2023-07-30T07:52:13;21.67;;;9.93;;
14748;SDS011;7466;53.574;9.976;2023-07-30T07:54:40;18.83;;;9.43;;
14748;SDS011;7466;53.574;9.976;2023-07-30T07:57:09;20.93;;;8.57;;
14748;SDS011;7466;53.574;9.976;2023-07-30T07:59:35;16.60;;;8.33;;
14748;SDS011;7466;53.574;9.976;2023-07-30T08:02:02;20.67;;;8.37;;
14748;SDS011;7466;53.574;9.976;2023-07-30T08:04:29;17.77;;;8.00;;
14748;SDS011;7466;53.574;9.976;2023-07-30T08:06:56;18.83;;;8.67;;
14748;SDS011;7466;53.574;9.976;2023-07-30T08:09:25;18.13;;;7.73;;
14748;SDS011;7466;53.574;9.976;2023-07-30T08:11:51;15.17;;;8.60;;
14748;SDS011;7466;53.574;9.976;2023-07-30T08:14:19;20.57;;;8.50;;
14748;SDS011;7466;53.574;9.976;2023-07-30T08:16:46;17.10;;;8.83;;
14748;SDS011;7466;53.574;9.976;2023-07-30T08:19:13;16.40;;;8.10;;
14748;SDS011;7466;53.574;9.976;2023-07-30T08:21:39;18.10;;;8.13;;
14748;SDS011;7466;53.574;9.976;2023-07-30T08:24:06;16.03;;;8.10;;
14748;SDS011;7466;53.574;9.976;2023-07-30T08:26:33;18.73;;;7.53;;
14748;SDS011;7466;53.574;9.976;2023-07-30T08:28:59;14.90;;;7.30;;
14748;SDS011;7466;53.574;9.976;2023-07-30T08:31:27;19.67;;;7.70;;
14748;SDS011;7466;53.574;9.976;2023-07-30T08:33:55;17.10;;;7.00;;
14748;SDS011;7466;53.574;9.976;2023-07-30T08:36:21;17.07;;;6.43;;
14748;SDS011;7466;53.574;9.976;2023-07-30T08:38:48;15.63;;;6.67;;
14748;SDS011;7466;53.574;9.976;2023-07-30T08:41:15;17.30;;;5.90;;
14748;SDS011;7466;53.574;9.976;2023-07-30T08:43:41;13.17;;;5.63;;
14748;SDS011;7466;53.574;9.976;2023-07-30T08:46:13;14.37;;;5.67;;
14748;SDS011;7466;53.574;9.976;2023-07-30T08:48:41;20.07;;;5.03;;
14748;SDS011;7466;53.574;9.976;2023-07-30T08:51:08;17.33;;;5.17;;
14748;SDS011;7466;53.574;9.976;2023-07-30T08:53:37;14.30;;;4.93;;
14748;SDS011;7466;53.574;9.976;2023-07-30T08:56:04;13.30;;;5.33;;
14748;SDS011;7466;53.574;9.976;2023-07-30T08:58:32;17.67;;;5.23;;
14748;SDS011;7466;53.574;9.976;2023-07-30T09:01:00;16.40;;;4.80;;
14748;SDS011;7466;53.574;9.976;2023-07-30T09:03:30;14.80;;;4.80;;
14748;SDS011;7466;53.574;9.976;2023-07-30T09:06:02;14.37;;;4.97;;
14748;SDS011;7466;53.574;9.976;2023-07-30T09:08:29;17.20;;;5.17;;
14748;SDS011;7466;53.574;9.976;2023-07-30T09:10:57;14.03;;;4.60;;
14748;SDS011;7466;53.574;9.976;2023-07-30T09:13:23;18.70;;;5.40;;
14748;SDS011;7466;53.574;9.976;2023-07-30T09:15:50;10.50;;;4.70;;
14748;SDS011;7466;53.574;9.976;2023-07-30T09:18:17;14.30;;;5.10;;
14748;SDS011;7466;53.574;9.976;2023-07-30T09:20:44;17.63;;;5.03;;
14748;SDS011;7466;53.574;9.976;2023-07-30T09:23:12;12.17;;;4.37;;
14748;SDS011;7466;53.574;9.976;2023-07-30T09:25:39;13.40;;;4.60;;
14748;SDS011;7466;53.574;9.976;2023-07-30T09:28:06;13.47;;;4.33;;
14748;SDS011;7466;53.574;9.976;2023-07-30T09:30:33;12.37;;;4.27;;
14748;SDS011;7466;53.574;9.976;2023-07-30T09:32:59;10.83;;;4.10;;
14748;SDS011;7466;53.574;9.976;2023-07-30T09:35:26;11.23;;;4.30;;
14748;SDS011;7466;53.574;9.976;2023-07-30T09:37:57;12.77;;;4.50;;
14748;SDS011;7466;53.574;9.976;2023-07-30T09:40:34;10.13;;;4.30;;
14748;SDS011;7466;53.574;9.976;2023-07-30T09:43:04;14.97;;;3.50;;
14748;SDS011;7466;53.574;9.976;2023-07-30T09:45:33;12.60;;;4.20;;
14748;SDS011;7466;53.574;9.976;2023-07-30T09:48:01;9.43;;;4.00;;
14748;SDS011;7466;53.574;9.976;2023-07-30T09:50:30;8.87;;;4.20;;
14748;SDS011;7466;53.574;9.976;2023-07-30T09:52:57;13.57;;;4.30;;
14748;SDS011;7466;53.574;9.976;2023-07-30T09:55:27;13.93;;;4.40;;
14748;SDS011;7466;53.574;9.976;2023-07-30T09:57:55;9.43;;;4.33;;
14748;SDS011;7466;53.574;9.976;2023-07-30T10:00:22;15.23;;;4.87;;
14748;SDS011;7466;53.574;9.976;2023-07-30T10:02:49;13.07;;;4.30;;
14748;SDS011;7466;53.574;9.976;2023-07-30T10:05:18;12.77;;;4.10;;
14748;SDS011;7466;53.574;9.976;2023-07-30T10:07:47;11.27;;;3.73;;
14748;SDS011;7466;53.574;9.976;2023-07-30T10:10:17;13.17;;;4.23;;
14748;SDS011;7466;53.574;9.976;2023-07-30T10:12:45;16.63;;;4.17;;
14748;SDS011;7466;53.574;9.976;2023-07-30T10:15:15;10.03;;;4.00;;
14748;SDS011;7466;53.574;9.976;2023-07-30T10:17:45;12.27;;;4.00;;
14748;SDS011;7466;53.574;9.976;2023-07-30T10:20:19;11.87;;;4.10;;
14748;SDS011;7466;53.574;9.976;2023-07-30T10:22:47;15.10;;;3.83;;
14748;SDS011;7466;53.574;9.976;2023-07-30T10:25:18;10.13;;;3.53;;
14748;SDS011;7466;53.574;9.976;2023-07-30T10:27:49;12.47;;;3.67;;
14748;SDS011;7466;53.574;9.976;2023-07-30T10:30:18;11.00;;;3.80;;
14748;SDS011;7466;53.574;9.976;2023-07-30T10:32:59;9.50;;;3.40;;
14748;SDS011;7466;53.574;9.976;2023-07-30T10:35:40;12.00;;;3.77;;
14748;SDS011;7466;53.574;9.976;2023-07-30T10:38:17;11.73;;;4.73;;
14748;SDS011;7466;53.574;9.976;2023-07-30T10:40:59;11.37;;;4.30;;
14748;SDS011;7466;53.574;9.976;2023-07-30T10:43:27;8.77;;;4.03;;
14748;SDS011;7466;53.574;9.976;2023-07-30T10:45:56;11.50;;;3.60;;
14748;SDS011;7466;53.574;9.976;2023-07-30T10:48:29;8.27;;;3.77;;
14748;SDS011;7466;53.574;9.976;2023-07-30T10:51:00;10.53;;;3.70;;
14748;SDS011;7466;53.574;9.976;2023-07-30T10:53:28;9.37;;;3.40;;
14748;SDS011;7466;53.574;9.976;2023-07-30T10:55:57;8.87;;;3.87;;
14748;SDS011;7466;53.574;9.976;2023-07-30T10:58:26;10.07;;;3.53;;
14748;SDS011;7466;53.574;9.976;2023-07-30T11:00:53;11.70;;;3.60;;
14748;SDS011;7466;53.574;9.976;2023-07-30T11:03:21;8.63;;;3.57;;
14748;SDS011;7466;53.574;9.976;2023-07-30T11:05:50;9.83;;;3.53;;
14748;SDS011;7466;53.574;9.976;2023-07-30T11:08:17;11.53;;;3.50;;
14748;SDS011;7466;53.574;9.976;2023-07-30T11:10:44;6.40;;;3.20;;
14748;SDS011;7466;53.574;9.976;2023-07-30T11:13:12;7.40;;;3.20;;
14748;SDS011;7466;53.574;9.976;2023-07-30T11:15:40;7.10;;;3.30;;
14748;SDS011;7466;53.574;9.976;2023-07-30T11:18:08;12.03;;;3.67;;
14748;SDS011;7466;53.574;9.976;2023-07-30T11:20:36;9.50;;;3.63;;
14748;SDS011;7466;53.574;9.976;2023-07-30T11:23:03;10.83;;;3.60;;
14748;SDS011;7466;53.574;9.976;2023-07-30T11:25:45;8.00;;;3.00;;
14748;SDS011;7466;53.574;9.976;2023-07-30T11:28:12;9.90;;;3.27;;
14748;SDS011;7466;53.574;9.976;2023-07-30T11:30:39;9.70;;;3.43;;
14748;SDS011;7466;53.574;9.976;2023-07-30T11:33:06;11.70;;;3.47;;
14748;SDS011;7466;53.574;9.976;2023-07-30T11:35:33;8.37;;;3.00;;
14748;SDS011;7466;53.574;9.976;2023-07-30T11:38:01;7.82;;;2.75;;
14748;SDS011;7466;53.574;9.976;2023-07-30T11:40:27;4.70;;;2.93;;
14748;SDS011;7466;53.574;9.976;2023-07-30T11:42:54;10.13;;;2.90;;
14748;SDS011;7466;53.574;9.976;2023-07-30T11:45:22;6.47;;;3.22;;
14748;SDS011;7466;53.574;9.976;2023-07-30T11:47:51;8.45;;;2.88;;
14748;SDS011;7466;53.574;9.976;2023-07-30T11:50:18;7.38;;;2.78;;
14748;SDS011;7466;53.574;9.976;2023-07-30T11:52:52;7.57;;;3.00;;
14748;SDS011;7466;53.574;9.976;2023-07-30T11:55:21;6.68;;;3.00;;
14748;SDS011;7466;53.574;9.976;2023-07-30T11:57:49;9.30;;;3.20;;
14748;SDS011;7466;53.574;9.976;2023-07-30T12:00:16;5.68;;;2.97;;
14748;SDS011;7466;53.574;9.976;2023-07-30T12:02:46;7.78;;;2.83;;
14748;SDS011;7466;53.574;9.976;2023-07-30T12:05:12;4.80;;;2.55;;
14748;SDS011;7466;53.574;9.976;2023-07-30T12:07:43;6.43;;;2.60;;
14748;SDS011;7466;53.574;9.976;2023-07-30T12:10:13;6.20;;;2.83;;
14748;SDS011;7466;53.574;9.976;2023-07-30T12:12:44;5.03;;;2.50;;
14748;SDS011;7466;53.574;9.976;2023-07-30T12:15:11;8.02;;;2.70;;
14748;SDS011;7466;53.574;9.976;2023-07-30T12:17:38;6.70;;;2.97;;
14748;SDS011;7466;53.574;9.976;2023-07-30T12:20:05;7.65;;;2.67;;
14748;SDS011;7466;53.574;9.976;2023-07-30T12:22:32;10.43;;;3.00;;
14748;SDS011;7466;53.574;9.976;2023-07-30T12:25:00;5.78;;;2.40;;
14748;SDS011;7466;53.574;9.976;2023-07-30T12:27:27;8.80;;;2.83;;
14748;SDS011;7466;53.574;9.976;2023-07-30T12:29:55;5.75;;;2.53;;
14748;SDS011;7466;53.574;9.976;2023-07-30T12:32:22;10.02;;;2.58;;
14748;SDS011;7466;53.574;9.976;2023-07-30T12:34:49;5.50;;;2.60;;
14748;SDS011;7466;53.574;9.976;2023-07-30T12:37:16;5.05;;;2.35;;
14748;SDS011;7466;53.574;9.976;2023-07-30T12:39:43;6.72;;;2.60;;
14748;SDS011;7466;53.574;9.976;2023-07-30T12:42:10;7.47;;;2.97;;
14748;SDS011;7466;53.574;9.976;2023-07-30T12:44:36;9.15;;;3.03;;
14748;SDS011;7466;53.574;9.976;2023-07-30T12:47:04;7.93;;;3.15;;
14748;SDS011;7466;53.574;9.976;2023-07-30T12:49:31;5.70;;;2.70;;
14748;SDS011;7466;53.574;9.976;2023-07-30T12:51:58;5.65;;;2.85;;
14748;SDS011;7466;53.574;9.976;2023-07-30T12:54:24;6.60;;;2.65;;
14748;SDS011;7466;53.574;9.976;2023-07-30T12:56:51;4.80;;;2.75;;
14748;SDS011;7466;53.574;9.976;2023-07-30T12:59:18;7.00;;;3.28;;
14748;SDS011;7466;53.574;9.976;2023-07-30T13:01:44;5.32;;;2.80;;
14748;SDS011;7466;53.574;9.976;2023-07-30T13:04:12;6.10;;;2.80;;
14748;SDS011;7466;53.574;9.976;2023-07-30T13:06:39;7.60;;;3.00;;
14748;SDS011;7466;53.574;9.976;2023-07-30T13:09:06;7.77;;;2.93;;
14748;SDS011;7466;53.574;9.976;2023-07-30T13:11:32;4.00;;;2.10;;
14748;SDS011;7466;53.574;9.976;2023-07-30T13:13:59;5.23;;;2.37;;
14748;SDS011;7466;53.574;9.976;2023-07-30T13:16:26;6.73;;;2.93;;
14748;SDS011;7466;53.574;9.976;2023-07-30T13:18:52;7.47;;;2.47;;
14748;SDS011;7466;53.574;9.976;2023-07-30T13:21:23;8.13;;;2.60;;
14748;SDS011;7466;53.574;9.976;2023-07-30T13:23:50;4.53;;;2.33;;
14748;SDS011;7466;53.574;9.976;2023-07-30T13:26:16;7.33;;;2.50;;
14748;SDS011;7466;53.574;9.976;2023-07-30T13:28:43;5.10;;;2.40;;
14748;SDS011;7466;53.574;9.976;2023-07-30T13:31:10;6.07;;;2.27;;
14748;SDS011;7466;53.574;9.976;2023-07-30T13:33:37;4.57;;;2.30;;
14748;SDS011;7466;53.574;9.976;2023-07-30T13:36:04;4.77;;;2.50;;
14748;SDS011;7466;53.574;9.976;2023-07-30T13:38:32;5.93;;;2.97;;
14748;SDS011;7466;53.574;9.976;2023-07-30T13:40:59;5.30;;;2.80;;
14748;SDS011;7466;53.574;9.976;2023-07-30T13:43:26;4.00;;;2.40;;
14748;SDS011;7466;53.574;9.976;2023-07-30T13:45:54;4.60;;;2.57;;
14748;SDS011;7466;53.574;9.976;2023-07-30T13:48:21;3.63;;;2.57;;
14748;SDS011;7466;53.574;9.976;2023-07-30T13:50:48;5.97;;;2.67;;
14748;SDS011;7466;53.574;9.976;2023-07-30T13:53:15;6.83;;;3.00;;
14748;SDS011;7466;53.574;9.976;2023-07-30T13:55:43;5.83;;;2.93;;
14748;SDS011;7466;53.574;9.976;2023-07-30T13:58:10;2.97;;;2.57;;
14748;SDS011;7466;53.574;9.976;2023-07-30T14:00:39;5.83;;;3.13;;
14748;SDS011;7466;53.574;9.976;2023-07-30T14:03:07;5.27;;;2.37;;
14748;SDS011;7466;53.574;9.976;2023-07-30T14:05:34;6.00;;;2.50;;
14748;SDS011;7466;53.574;9.976;2023-07-30T14:08:00;5.47;;;2.30;;
14748;SDS011;7466;53.574;9.976;2023-07-30T14:10:27;4.80;;;2.40;;
14748;SDS011;7466;53.574;9.976;2023-07-30T14:12:55;3.57;;;2.20;;
14748;SDS011;7466;53.574;9.976;2023-07-30T14:15:22;3.43;;;1.93;;
14748;SDS011;7466;53.574;9.976;2023-07-30T14:17:49;2.67;;;1.83;;
14748;SDS011;7466;53.574;9.976;2023-07-30T14:20:17;2.80;;;1.70;;
14748;SDS011;7466;53.574;9.976;2023-07-30T14:22:44;2.65;;;1.60;;
14748;SDS011;7466;53.574;9.976;2023-07-30T14:25:10;5.78;;;1.67;;
14748;SDS011;7466;53.574;9.976;2023-07-30T14:27:37;2.90;;;1.77;;
14748;SDS011;7466;53.574;9.976;2023-07-30T14:30:06;2.58;;;1.60;;
14748;SDS011;7466;53.574;9.976;2023-07-30T14:32:33;2.35;;;1.60;;
14748;SDS011;7466;53.574;9.976;2023-07-30T14:35:00;2.90;;;1.83;;
14748;SDS011;7466;53.574;9.976;2023-07-30T14:37:27;3.53;;;1.80;;
14748;SDS011;7466;53.574;9.976;2023-07-30T14:39:53;3.50;;;1.70;;
14748;SDS011;7466;53.574;9.976;2023-07-30T14:42:20;2.38;;;1.60;;
14748;SDS011;7466;53.574;9.976;2023-07-30T14:44:47;2.47;;;1.55;;
14748;SDS011;7466;53.574;9.976;2023-07-30T14:47:15;2.97;;;1.55;;
14748;SDS011;7466;53.574;9.976;2023-07-30T14:49:42;3.88;;;1.70;;